sensor_id;sensor_type;location;lat;lon;timestamp;P1;durP1;ratioP1;P2;durP2;ratioP2
11319;SDS011;5715;48.234;14.320;2022-09-27T00:02:17;3.67;;;2.50;;
11319;SDS011;5715;48.234;14.320;2022-09-27T00:05:05;3.30;;;3.00;;
11319;SDS011;5715;48.234;14.320;2022-09-27T00:07:53;4.17;;;2.60;;
11319;SDS011;5715;48.234;14.320;2022-09-27T00:10:42;2.63;;;2.43;;
11319;SDS011;5715;48.234;14.320;2022-09-27T00:13:29;5.97;;;2.87;;
11319;SDS011;5715;48.234;14.320;2022-09-27T00:16:17;4.63;;;2.73;;
11319;SDS011;5715;48.234;14.320;2022-09-27T00:19:06;3.60;;;2.60;;
11319;SDS011;5715;48.234;14.320;2022-09-27T00:22:04;4.20;;;2.70;;
11319;SDS011;5715;48.234;14.320;2022-09-27T00:24:52;4.07;;;2.63;;
11319;SDS011;5715;48.234;14.320;2022-09-27T00:27:40;2.90;;;2.47;;
11319;SDS011;5715;48.234;14.320;2022-09-27T00:30:27;3.63;;;2.70;;
11319;SDS011;5715;48.234;14.320;2022-09-27T00:33:15;4.80;;;2.70;;
11319;SDS011;5715;48.234;14.320;2022-09-27T00:36:04;2.97;;;2.60;;
11319;SDS011;5715;48.234;14.320;2022-09-27T00:38:52;2.93;;;2.20;;
11319;SDS011;5715;48.234;14.320;2022-09-27T00:41:42;6.50;;;2.80;;
11319;SDS011;5715;48.234;14.320;2022-09-27T00:47:34;4.30;;;3.33;;
11319;SDS011;5715;48.234;14.320;2022-09-27T00:50:49;5.80;;;3.27;;
11319;SDS011;5715;48.234;14.320;2022-09-27T00:53:44;3.40;;;2.87;;
11319;SDS011;5715;48.234;14.320;2022-09-27T00:56:39;3.47;;;3.13;;
11319;SDS011;5715;48.234;14.320;2022-09-27T01:00:13;5.07;;;3.20;;
11319;SDS011;5715;48.234;14.320;2022-09-27T01:02:55;4.13;;;2.70;;
11319;SDS011;5715;48.234;14.320;2022-09-27T01:05:44;4.07;;;2.87;;
11319;SDS011;5715;48.234;14.320;2022-09-27T01:08:32;4.83;;;3.07;;
11319;SDS011;5715;48.234;14.320;2022-09-27T01:14:55;4.80;;;3.53;;
11319;SDS011;5715;48.234;14.320;2022-09-27T01:37:57;3.90;;;3.50;;
11319;SDS011;5715;48.234;14.320;2022-09-27T01:44:26;3.97;;;2.87;;
11319;SDS011;5715;48.234;14.320;2022-09-27T01:47:38;4.13;;;2.97;;
11319;SDS011;5715;48.234;14.320;2022-09-27T01:50:39;7.63;;;3.53;;
11319;SDS011;5715;48.234;14.320;2022-09-27T01:53:45;2.47;;;2.27;;
11319;SDS011;5715;48.234;14.320;2022-09-27T01:56:39;3.93;;;2.87;;
11319;SDS011;5715;48.234;14.320;2022-09-27T01:59:41;5.87;;;3.30;;
11319;SDS011;5715;48.234;14.320;2022-09-27T02:02:47;6.57;;;3.10;;
11319;SDS011;5715;48.234;14.320;2022-09-27T02:05:45;3.47;;;2.67;;
11319;SDS011;5715;48.234;14.320;2022-09-27T02:08:40;5.87;;;3.53;;
11319;SDS011;5715;48.234;14.320;2022-09-27T02:11:51;4.60;;;3.23;;
11319;SDS011;5715;48.234;14.320;2022-09-27T02:17:54;4.07;;;3.40;;
11319;SDS011;5715;48.234;14.320;2022-09-27T02:20:54;3.17;;;2.73;;
11319;SDS011;5715;48.234;14.320;2022-09-27T02:23:51;4.37;;;3.13;;
11319;SDS011;5715;48.234;14.320;2022-09-27T02:26:47;4.60;;;3.37;;
11319;SDS011;5715;48.234;14.320;2022-09-27T02:29:55;3.67;;;2.90;;
11319;SDS011;5715;48.234;14.320;2022-09-27T02:33:04;5.13;;;3.13;;
11319;SDS011;5715;48.234;14.320;2022-09-27T02:35:52;4.43;;;3.27;;
11319;SDS011;5715;48.234;14.320;2022-09-27T02:38:40;4.60;;;3.63;;
11319;SDS011;5715;48.234;14.320;2022-09-27T02:41:30;3.37;;;2.77;;
11319;SDS011;5715;48.234;14.320;2022-09-27T02:44:18;2.83;;;2.60;;
11319;SDS011;5715;48.234;14.320;2022-09-27T02:53:44;13.13;;;3.77;;
11319;SDS011;5715;48.234;14.320;2022-09-27T03:01:11;4.07;;;3.13;;
11319;SDS011;5715;48.234;14.320;2022-09-27T03:07:09;4.27;;;3.07;;
11319;SDS011;5715;48.234;14.320;2022-09-27T03:09:59;5.53;;;4.23;;
11319;SDS011;5715;48.234;14.320;2022-09-27T03:12:47;4.63;;;3.60;;
11319;SDS011;5715;48.234;14.320;2022-09-27T03:15:36;7.07;;;3.97;;
11319;SDS011;5715;48.234;14.320;2022-09-27T03:18:23;4.87;;;3.53;;
11319;SDS011;5715;48.234;14.320;2022-09-27T03:21:11;7.77;;;3.37;;
11319;SDS011;5715;48.234;14.320;2022-09-27T03:23:58;4.23;;;3.13;;
11319;SDS011;5715;48.234;14.320;2022-09-27T03:26:46;3.93;;;3.13;;
11319;SDS011;5715;48.234;14.320;2022-09-27T03:29:34;9.17;;;3.47;;
11319;SDS011;5715;48.234;14.320;2022-09-27T03:32:22;3.30;;;3.00;;
11319;SDS011;5715;48.234;14.320;2022-09-27T03:35:10;3.87;;;3.50;;
11319;SDS011;5715;48.234;14.320;2022-09-27T03:37:59;4.17;;;3.60;;
11319;SDS011;5715;48.234;14.320;2022-09-27T03:40:46;4.40;;;3.20;;
11319;SDS011;5715;48.234;14.320;2022-09-27T03:43:34;4.37;;;3.57;;
11319;SDS011;5715;48.234;14.320;2022-09-27T03:46:22;5.00;;;3.37;;
11319;SDS011;5715;48.234;14.320;2022-09-27T03:49:10;5.43;;;3.33;;
11319;SDS011;5715;48.234;14.320;2022-09-27T03:51:57;3.30;;;3.00;;
11319;SDS011;5715;48.234;14.320;2022-09-27T03:54:45;3.77;;;3.43;;
11319;SDS011;5715;48.234;14.320;2022-09-27T03:57:33;4.90;;;3.23;;
11319;SDS011;5715;48.234;14.320;2022-09-27T04:00:21;3.67;;;3.30;;
11319;SDS011;5715;48.234;14.320;2022-09-27T04:03:10;4.17;;;3.37;;
11319;SDS011;5715;48.234;14.320;2022-09-27T04:05:57;5.43;;;3.33;;
11319;SDS011;5715;48.234;14.320;2022-09-27T04:08:46;3.53;;;2.97;;
11319;SDS011;5715;48.234;14.320;2022-09-27T04:11:33;4.40;;;3.27;;
11319;SDS011;5715;48.234;14.320;2022-09-27T04:14:21;4.20;;;3.10;;
11319;SDS011;5715;48.234;14.320;2022-09-27T04:17:08;3.70;;;3.10;;
11319;SDS011;5715;48.234;14.320;2022-09-27T04:19:56;3.40;;;2.63;;
11319;SDS011;5715;48.234;14.320;2022-09-27T04:22:44;6.70;;;3.83;;
11319;SDS011;5715;48.234;14.320;2022-09-27T04:25:31;4.40;;;2.47;;
11319;SDS011;5715;48.234;14.320;2022-09-27T04:28:19;4.83;;;3.30;;
11319;SDS011;5715;48.234;14.320;2022-09-27T04:31:07;6.63;;;3.53;;
11319;SDS011;5715;48.234;14.320;2022-09-27T04:33:55;4.57;;;3.70;;
11319;SDS011;5715;48.234;14.320;2022-09-27T04:36:44;4.63;;;3.30;;
11319;SDS011;5715;48.234;14.320;2022-09-27T04:39:31;3.57;;;3.20;;
11319;SDS011;5715;48.234;14.320;2022-09-27T04:42:20;4.50;;;2.70;;
11319;SDS011;5715;48.234;14.320;2022-09-27T04:45:08;3.67;;;2.83;;
11319;SDS011;5715;48.234;14.320;2022-09-27T04:47:58;5.43;;;3.73;;
11319;SDS011;5715;48.234;14.320;2022-09-27T04:50:46;6.53;;;3.77;;
11319;SDS011;5715;48.234;14.320;2022-09-27T04:53:43;4.80;;;3.30;;
11319;SDS011;5715;48.234;14.320;2022-09-27T04:56:31;3.50;;;2.50;;
11319;SDS011;5715;48.234;14.320;2022-09-27T04:59:18;2.83;;;2.53;;
11319;SDS011;5715;48.234;14.320;2022-09-27T05:02:07;5.33;;;3.90;;
11319;SDS011;5715;48.234;14.320;2022-09-27T05:04:55;4.53;;;3.77;;
11319;SDS011;5715;48.234;14.320;2022-09-27T05:07:45;5.67;;;3.17;;
11319;SDS011;5715;48.234;14.320;2022-09-27T05:10:32;3.30;;;2.80;;
11319;SDS011;5715;48.234;14.320;2022-09-27T05:13:20;4.17;;;2.80;;
11319;SDS011;5715;48.234;14.320;2022-09-27T05:16:08;3.17;;;2.57;;
11319;SDS011;5715;48.234;14.320;2022-09-27T05:18:56;17.83;;;3.67;;
11319;SDS011;5715;48.234;14.320;2022-09-27T05:21:44;4.13;;;3.17;;
11319;SDS011;5715;48.234;14.320;2022-09-27T05:24:32;3.97;;;3.03;;
11319;SDS011;5715;48.234;14.320;2022-09-27T05:27:20;3.07;;;2.53;;
11319;SDS011;5715;48.234;14.320;2022-09-27T05:30:08;5.47;;;3.53;;
11319;SDS011;5715;48.234;14.320;2022-09-27T05:32:56;5.53;;;3.27;;
11319;SDS011;5715;48.234;14.320;2022-09-27T05:35:50;4.37;;;3.33;;
11319;SDS011;5715;48.234;14.320;2022-09-27T05:38:42;7.80;;;4.43;;
11319;SDS011;5715;48.234;14.320;2022-09-27T05:41:30;3.97;;;3.43;;
11319;SDS011;5715;48.234;14.320;2022-09-27T05:44:18;5.50;;;3.80;;
11319;SDS011;5715;48.234;14.320;2022-09-27T05:47:06;6.67;;;4.00;;
11319;SDS011;5715;48.234;14.320;2022-09-27T05:49:54;6.37;;;3.60;;
11319;SDS011;5715;48.234;14.320;2022-09-27T05:52:42;5.57;;;4.27;;
11319;SDS011;5715;48.234;14.320;2022-09-27T05:55:29;7.83;;;3.40;;
11319;SDS011;5715;48.234;14.320;2022-09-27T05:58:17;4.97;;;4.27;;
11319;SDS011;5715;48.234;14.320;2022-09-27T06:01:05;4.63;;;3.33;;
11319;SDS011;5715;48.234;14.320;2022-09-27T06:03:54;4.80;;;4.13;;
11319;SDS011;5715;48.234;14.320;2022-09-27T06:06:41;4.03;;;3.67;;
11319;SDS011;5715;48.234;14.320;2022-09-27T06:09:29;4.00;;;3.60;;
11319;SDS011;5715;48.234;14.320;2022-09-27T06:12:17;3.73;;;3.43;;
11319;SDS011;5715;48.234;14.320;2022-09-27T06:15:06;4.17;;;3.77;;
11319;SDS011;5715;48.234;14.320;2022-09-27T06:17:54;5.00;;;4.10;;
11319;SDS011;5715;48.234;14.320;2022-09-27T06:20:42;5.50;;;4.37;;
11319;SDS011;5715;48.234;14.320;2022-09-27T06:23:30;15.60;;;5.20;;
11319;SDS011;5715;48.234;14.320;2022-09-27T06:26:19;3.97;;;3.53;;
11319;SDS011;5715;48.234;14.320;2022-09-27T06:29:07;4.87;;;3.43;;
11319;SDS011;5715;48.234;14.320;2022-09-27T06:31:55;5.17;;;4.67;;
11319;SDS011;5715;48.234;14.320;2022-09-27T06:34:44;5.23;;;4.67;;
11319;SDS011;5715;48.234;14.320;2022-09-27T06:37:32;5.57;;;4.70;;
11319;SDS011;5715;48.234;14.320;2022-09-27T06:40:20;8.57;;;4.40;;
11319;SDS011;5715;48.234;14.320;2022-09-27T06:43:11;5.90;;;4.77;;
11319;SDS011;5715;48.234;14.320;2022-09-27T06:46:05;6.40;;;4.77;;
11319;SDS011;5715;48.234;14.320;2022-09-27T06:48:53;6.03;;;4.20;;
11319;SDS011;5715;48.234;14.320;2022-09-27T06:51:42;13.23;;;5.87;;
11319;SDS011;5715;48.234;14.320;2022-09-27T06:54:29;7.57;;;4.90;;
11319;SDS011;5715;48.234;14.320;2022-09-27T06:57:17;8.10;;;4.77;;
11319;SDS011;5715;48.234;14.320;2022-09-27T07:00:25;6.03;;;4.10;;
11319;SDS011;5715;48.234;14.320;2022-09-27T07:03:12;11.77;;;4.87;;
11319;SDS011;5715;48.234;14.320;2022-09-27T07:06:02;6.23;;;4.30;;
11319;SDS011;5715;48.234;14.320;2022-09-27T07:08:52;7.10;;;5.10;;
11319;SDS011;5715;48.234;14.320;2022-09-27T07:11:40;8.10;;;4.73;;
11319;SDS011;5715;48.234;14.320;2022-09-27T07:14:30;4.40;;;3.97;;
11319;SDS011;5715;48.234;14.320;2022-09-27T07:17:19;4.60;;;3.33;;
11319;SDS011;5715;48.234;14.320;2022-09-27T07:20:07;4.43;;;3.40;;
11319;SDS011;5715;48.234;14.320;2022-09-27T07:22:56;3.30;;;3.00;;
11319;SDS011;5715;48.234;14.320;2022-09-27T07:25:45;7.00;;;3.30;;
11319;SDS011;5715;48.234;14.320;2022-09-27T07:28:33;4.87;;;3.77;;
11319;SDS011;5715;48.234;14.320;2022-09-27T07:31:21;2.87;;;2.60;;
11319;SDS011;5715;48.234;14.320;2022-09-27T07:34:10;3.50;;;2.63;;
11319;SDS011;5715;48.234;14.320;2022-09-27T07:36:58;8.77;;;2.47;;
11319;SDS011;5715;48.234;14.320;2022-09-27T07:39:47;4.87;;;2.60;;
11319;SDS011;5715;48.234;14.320;2022-09-27T07:42:35;3.27;;;2.67;;
11319;SDS011;5715;48.234;14.320;2022-09-27T07:45:29;3.93;;;2.63;;
11319;SDS011;5715;48.234;14.320;2022-09-27T07:48:18;2.40;;;1.90;;
11319;SDS011;5715;48.234;14.320;2022-09-27T07:51:05;2.17;;;1.97;;
11319;SDS011;5715;48.234;14.320;2022-09-27T07:53:56;8.70;;;2.80;;
11319;SDS011;5715;48.234;14.320;2022-09-27T07:56:44;2.07;;;1.77;;
11319;SDS011;5715;48.234;14.320;2022-09-27T07:59:32;1.77;;;1.67;;
11319;SDS011;5715;48.234;14.320;2022-09-27T08:02:19;2.70;;;2.10;;
11319;SDS011;5715;48.234;14.320;2022-09-27T08:05:08;1.73;;;1.63;;
11319;SDS011;5715;48.234;14.320;2022-09-27T08:07:58;10.23;;;2.07;;
11319;SDS011;5715;48.234;14.320;2022-09-27T08:10:45;2.10;;;1.90;;
11319;SDS011;5715;48.234;14.320;2022-09-27T08:13:33;2.37;;;2.03;;
11319;SDS011;5715;48.234;14.320;2022-09-27T08:16:23;1.53;;;1.43;;
11319;SDS011;5715;48.234;14.320;2022-09-27T08:19:10;2.90;;;2.53;;
11319;SDS011;5715;48.234;14.320;2022-09-27T08:21:58;3.27;;;2.37;;
11319;SDS011;5715;48.234;14.320;2022-09-27T08:24:46;2.40;;;2.20;;
11319;SDS011;5715;48.234;14.320;2022-09-27T08:27:34;1.90;;;1.80;;
11319;SDS011;5715;48.234;14.320;2022-09-27T08:30:22;3.60;;;2.17;;
11319;SDS011;5715;48.234;14.320;2022-09-27T08:33:10;2.33;;;1.70;;
11319;SDS011;5715;48.234;14.320;2022-09-27T08:35:58;2.87;;;2.43;;
11319;SDS011;5715;48.234;14.320;2022-09-27T08:38:48;3.53;;;1.83;;
11319;SDS011;5715;48.234;14.320;2022-09-27T08:41:49;2.00;;;1.80;;
11319;SDS011;5715;48.234;14.320;2022-09-27T08:45:04;2.50;;;2.13;;
11319;SDS011;5715;48.234;14.320;2022-09-27T08:48:04;2.23;;;2.03;;
11319;SDS011;5715;48.234;14.320;2022-09-27T08:50:56;2.23;;;2.00;;
11319;SDS011;5715;48.234;14.320;2022-09-27T08:53:52;1.80;;;1.70;;
11319;SDS011;5715;48.234;14.320;2022-09-27T08:57:10;2.20;;;2.00;;
11319;SDS011;5715;48.234;14.320;2022-09-27T09:00:07;1.80;;;1.67;;
11319;SDS011;5715;48.234;14.320;2022-09-27T09:03:00;2.17;;;1.93;;
11319;SDS011;5715;48.234;14.320;2022-09-27T09:06:22;1.60;;;1.50;;
11319;SDS011;5715;48.234;14.320;2022-09-27T09:12:55;2.83;;;2.03;;
11319;SDS011;5715;48.234;14.320;2022-09-27T09:26:01;2.10;;;2.00;;
11319;SDS011;5715;48.234;14.320;2022-09-27T09:33:23;1.93;;;1.80;;
11319;SDS011;5715;48.234;14.320;2022-09-27T09:36:55;2.13;;;1.93;;
11319;SDS011;5715;48.234;14.320;2022-09-27T09:43:36;2.17;;;1.97;;
11319;SDS011;5715;48.234;14.320;2022-09-27T09:47:01;1.70;;;1.60;;
11319;SDS011;5715;48.234;14.320;2022-09-27T09:49:55;2.27;;;1.50;;
11319;SDS011;5715;48.234;14.320;2022-09-27T09:52:53;1.50;;;1.40;;
11319;SDS011;5715;48.234;14.320;2022-09-27T09:55:59;1.40;;;1.30;;
11319;SDS011;5715;48.234;14.320;2022-09-27T09:59:00;1.10;;;1.10;;
11319;SDS011;5715;48.234;14.320;2022-09-27T10:01:57;1.23;;;1.13;;
11319;SDS011;5715;48.234;14.320;2022-09-27T10:05:09;1.10;;;1.10;;
11319;SDS011;5715;48.234;14.320;2022-09-27T10:08:12;1.93;;;1.10;;
11319;SDS011;5715;48.234;14.320;2022-09-27T10:11:09;0.97;;;0.97;;
11319;SDS011;5715;48.234;14.320;2022-09-27T10:14:28;0.97;;;0.97;;
11319;SDS011;5715;48.234;14.320;2022-09-27T10:17:20;1.40;;;1.30;;
11319;SDS011;5715;48.234;14.320;2022-09-27T10:23:25;3.17;;;1.20;;
11319;SDS011;5715;48.234;14.320;2022-09-27T10:26:14;0.90;;;0.90;;
11319;SDS011;5715;48.234;14.320;2022-09-27T10:32:11;1.13;;;1.00;;
11319;SDS011;5715;48.234;14.320;2022-09-27T10:41:30;0.93;;;0.80;;
11319;SDS011;5715;48.234;14.320;2022-09-27T10:44:29;5.73;;;1.10;;
11319;SDS011;5715;48.234;14.320;2022-09-27T10:47:22;0.70;;;0.70;;
11319;SDS011;5715;48.234;14.320;2022-09-27T10:50:17;0.90;;;0.90;;
11319;SDS011;5715;48.234;14.320;2022-09-27T10:53:35;0.80;;;0.60;;
11319;SDS011;5715;48.234;14.320;2022-09-27T10:56:25;0.60;;;0.60;;
11319;SDS011;5715;48.234;14.320;2022-09-27T10:59:17;1.37;;;0.73;;
11319;SDS011;5715;48.234;14.320;2022-09-27T11:02:05;1.90;;;1.70;;
11319;SDS011;5715;48.234;14.320;2022-09-27T11:11:22;0.90;;;0.90;;
11319;SDS011;5715;48.234;14.320;2022-09-27T11:14:20;1.50;;;1.10;;
11319;SDS011;5715;48.234;14.320;2022-09-27T11:23:55;3.17;;;0.90;;
11319;SDS011;5715;48.234;14.320;2022-09-27T11:36:26;0.73;;;0.73;;
11319;SDS011;5715;48.234;14.320;2022-09-27T11:46:39;0.30;;;0.30;;
11319;SDS011;5715;48.234;14.320;2022-09-27T11:56:06;0.70;;;0.70;;
11319;SDS011;5715;48.234;14.320;2022-09-27T12:06:01;0.60;;;0.60;;
11319;SDS011;5715;48.234;14.320;2022-09-27T12:12:03;0.40;;;0.40;;
11319;SDS011;5715;48.234;14.320;2022-09-27T12:15:21;0.30;;;0.30;;
11319;SDS011;5715;48.234;14.320;2022-09-27T12:18:29;0.73;;;0.57;;
11319;SDS011;5715;48.234;14.320;2022-09-27T12:21:24;0.27;;;0.27;;
11319;SDS011;5715;48.234;14.320;2022-09-27T12:24:18;0.30;;;0.30;;
11319;SDS011;5715;48.234;14.320;2022-09-27T12:27:12;0.50;;;0.50;;
11319;SDS011;5715;48.234;14.320;2022-09-27T12:30:16;1.47;;;1.37;;
11319;SDS011;5715;48.234;14.320;2022-09-27T12:36:24;0.50;;;0.40;;
11319;SDS011;5715;48.234;14.320;2022-09-27T12:45:15;0.50;;;0.50;;
11319;SDS011;5715;48.234;14.320;2022-09-27T12:51:56;0.50;;;0.50;;
11319;SDS011;5715;48.234;14.320;2022-09-27T12:55:03;0.70;;;0.70;;
11319;SDS011;5715;48.234;14.320;2022-09-27T13:13:59;0.70;;;0.70;;
11319;SDS011;5715;48.234;14.320;2022-09-27T13:16:49;0.70;;;0.70;;
11319;SDS011;5715;48.234;14.320;2022-09-27T13:19:38;0.93;;;0.83;;
11319;SDS011;5715;48.234;14.320;2022-09-27T13:34:40;0.40;;;0.40;;
11319;SDS011;5715;48.234;14.320;2022-09-27T13:37:57;0.20;;;0.20;;
11319;SDS011;5715;48.234;14.320;2022-09-27T13:40:46;0.40;;;0.40;;
11319;SDS011;5715;48.234;14.320;2022-09-27T13:47:01;1.40;;;0.53;;
11319;SDS011;5715;48.234;14.320;2022-09-27T13:53:35;0.50;;;0.50;;
11319;SDS011;5715;48.234;14.320;2022-09-27T13:59:23;0.40;;;0.40;;
11319;SDS011;5715;48.234;14.320;2022-09-27T14:02:28;0.43;;;0.43;;
11319;SDS011;5715;48.234;14.320;2022-09-27T14:05:36;0.20;;;0.20;;
11319;SDS011;5715;48.234;14.320;2022-09-27T14:11:39;0.37;;;0.27;;
11319;SDS011;5715;48.234;14.320;2022-09-27T14:14:30;0.50;;;0.50;;
11319;SDS011;5715;48.234;14.320;2022-09-27T14:17:20;0.53;;;0.53;;
11319;SDS011;5715;48.234;14.320;2022-09-27T14:20:27;0.40;;;0.40;;
11319;SDS011;5715;48.234;14.320;2022-09-27T14:23:28;3.33;;;0.50;;
11319;SDS011;5715;48.234;14.320;2022-09-27T14:26:26;0.40;;;0.40;;
11319;SDS011;5715;48.234;14.320;2022-09-27T14:29:15;0.20;;;0.20;;
11319;SDS011;5715;48.234;14.320;2022-09-27T14:32:12;0.37;;;0.37;;
11319;SDS011;5715;48.234;14.320;2022-09-27T14:35:10;0.50;;;0.50;;
11319;SDS011;5715;48.234;14.320;2022-09-27T14:38:28;0.57;;;0.57;;
11319;SDS011;5715;48.234;14.320;2022-09-27T14:41:24;0.97;;;0.53;;
11319;SDS011;5715;48.234;14.320;2022-09-27T14:44:14;0.50;;;0.50;;
11319;SDS011;5715;48.234;14.320;2022-09-27T14:50:22;0.40;;;0.40;;
11319;SDS011;5715;48.234;14.320;2022-09-27T14:53:20;0.37;;;0.37;;
11319;SDS011;5715;48.234;14.320;2022-09-27T14:56:13;3.93;;;0.40;;
11319;SDS011;5715;48.234;14.320;2022-09-27T14:59:15;0.40;;;0.40;;
11319;SDS011;5715;48.234;14.320;2022-09-27T15:02:21;0.40;;;0.40;;
11319;SDS011;5715;48.234;14.320;2022-09-27T15:05:15;0.20;;;0.20;;
11319;SDS011;5715;48.234;14.320;2022-09-27T15:08:06;0.23;;;0.23;;
11319;SDS011;5715;48.234;14.320;2022-09-27T15:10:57;7.93;;;0.63;;
11319;SDS011;5715;48.234;14.320;2022-09-27T15:13:48;2.40;;;0.60;;
11319;SDS011;5715;48.234;14.320;2022-09-27T15:16:39;0.40;;;0.40;;
11319;SDS011;5715;48.234;14.320;2022-09-27T15:19:30;0.63;;;0.63;;
11319;SDS011;5715;48.234;14.320;2022-09-27T15:22:32;0.90;;;0.90;;
11319;SDS011;5715;48.234;14.320;2022-09-27T15:25:33;0.80;;;0.80;;
11319;SDS011;5715;48.234;14.320;2022-09-27T15:28:28;0.90;;;0.90;;
11319;SDS011;5715;48.234;14.320;2022-09-27T15:31:15;1.00;;;1.00;;
11319;SDS011;5715;48.234;14.320;2022-09-27T15:34:16;0.73;;;0.73;;
11319;SDS011;5715;48.234;14.320;2022-09-27T15:37:06;1.73;;;1.23;;
11319;SDS011;5715;48.234;14.320;2022-09-27T15:43:12;0.90;;;0.90;;
11319;SDS011;5715;48.234;14.320;2022-09-27T15:46:33;1.20;;;1.10;;
11319;SDS011;5715;48.234;14.320;2022-09-27T15:49:30;1.67;;;1.57;;
11319;SDS011;5715;48.234;14.320;2022-09-27T15:52:43;0.40;;;0.40;;
11319;SDS011;5715;48.234;14.320;2022-09-27T15:55:41;0.20;;;0.20;;
11319;SDS011;5715;48.234;14.320;2022-09-27T15:58:31;1.30;;;0.67;;
11319;SDS011;5715;48.234;14.320;2022-09-27T16:01:20;0.33;;;0.33;;
11319;SDS011;5715;48.234;14.320;2022-09-27T16:04:08;0.47;;;0.47;;
11319;SDS011;5715;48.234;14.320;2022-09-27T16:06:59;1.23;;;1.00;;
11319;SDS011;5715;48.234;14.320;2022-09-27T16:09:50;1.17;;;0.40;;
11319;SDS011;5715;48.234;14.320;2022-09-27T16:12:41;0.40;;;0.40;;
11319;SDS011;5715;48.234;14.320;2022-09-27T16:15:30;0.93;;;0.37;;
11319;SDS011;5715;48.234;14.320;2022-09-27T16:18:17;2.17;;;0.77;;
11319;SDS011;5715;48.234;14.320;2022-09-27T16:21:05;0.73;;;0.50;;
11319;SDS011;5715;48.234;14.320;2022-09-27T16:23:53;0.60;;;0.60;;
11319;SDS011;5715;48.234;14.320;2022-09-27T16:26:40;0.80;;;0.80;;
11319;SDS011;5715;48.234;14.320;2022-09-27T16:29:28;0.90;;;0.90;;
11319;SDS011;5715;48.234;14.320;2022-09-27T16:32:16;0.90;;;0.90;;
11319;SDS011;5715;48.234;14.320;2022-09-27T16:35:04;0.77;;;0.77;;
11319;SDS011;5715;48.234;14.320;2022-09-27T16:37:51;0.60;;;0.60;;
11319;SDS011;5715;48.234;14.320;2022-09-27T16:40:39;3.10;;;0.57;;
11319;SDS011;5715;48.234;14.320;2022-09-27T16:43:27;1.07;;;0.97;;
11319;SDS011;5715;48.234;14.320;2022-09-27T16:46:15;0.57;;;0.57;;
11319;SDS011;5715;48.234;14.320;2022-09-27T16:49:05;0.60;;;0.60;;
11319;SDS011;5715;48.234;14.320;2022-09-27T16:52:13;0.50;;;0.50;;
11319;SDS011;5715;48.234;14.320;2022-09-27T16:55:02;1.90;;;0.93;;
11319;SDS011;5715;48.234;14.320;2022-09-27T16:57:50;4.07;;;1.90;;
11319;SDS011;5715;48.234;14.320;2022-09-27T17:00:37;1.70;;;0.97;;
11319;SDS011;5715;48.234;14.320;2022-09-27T17:03:27;1.40;;;1.00;;
11319;SDS011;5715;48.234;14.320;2022-09-27T17:06:16;2.60;;;1.57;;
11319;SDS011;5715;48.234;14.320;2022-09-27T17:09:05;0.73;;;0.63;;
11319;SDS011;5715;48.234;14.320;2022-09-27T17:11:52;0.60;;;0.57;;
11319;SDS011;5715;48.234;14.320;2022-09-27T17:14:42;0.60;;;0.60;;
11319;SDS011;5715;48.234;14.320;2022-09-27T17:17:29;1.53;;;1.10;;
11319;SDS011;5715;48.234;14.320;2022-09-27T17:20:17;1.00;;;0.87;;
11319;SDS011;5715;48.234;14.320;2022-09-27T17:23:05;0.90;;;0.90;;
11319;SDS011;5715;48.234;14.320;2022-09-27T17:25:52;0.80;;;0.80;;
11319;SDS011;5715;48.234;14.320;2022-09-27T17:28:42;0.50;;;0.50;;
11319;SDS011;5715;48.234;14.320;2022-09-27T17:31:30;1.83;;;1.10;;
11319;SDS011;5715;48.234;14.320;2022-09-27T17:34:20;0.80;;;0.80;;
11319;SDS011;5715;48.234;14.320;2022-09-27T17:37:08;1.10;;;1.03;;
11319;SDS011;5715;48.234;14.320;2022-09-27T17:39:58;1.50;;;1.10;;
11319;SDS011;5715;48.234;14.320;2022-09-27T17:42:46;1.83;;;1.73;;
11319;SDS011;5715;48.234;14.320;2022-09-27T17:45:34;1.23;;;1.13;;
11319;SDS011;5715;48.234;14.320;2022-09-27T17:48:21;1.17;;;0.80;;
11319;SDS011;5715;48.234;14.320;2022-09-27T17:51:28;1.00;;;0.90;;
11319;SDS011;5715;48.234;14.320;2022-09-27T17:54:17;1.37;;;1.27;;
11319;SDS011;5715;48.234;14.320;2022-09-27T17:57:09;1.67;;;1.57;;
11319;SDS011;5715;48.234;14.320;2022-09-27T17:59:56;0.93;;;0.93;;
11319;SDS011;5715;48.234;14.320;2022-09-27T18:02:44;1.93;;;0.93;;
11319;SDS011;5715;48.234;14.320;2022-09-27T18:05:32;2.90;;;1.23;;
11319;SDS011;5715;48.234;14.320;2022-09-27T18:08:19;2.07;;;1.30;;
11319;SDS011;5715;48.234;14.320;2022-09-27T18:11:11;3.23;;;1.73;;
11319;SDS011;5715;48.234;14.320;2022-09-27T18:14:01;5.67;;;2.67;;
11319;SDS011;5715;48.234;14.320;2022-09-27T18:16:51;2.53;;;2.20;;
11319;SDS011;5715;48.234;14.320;2022-09-27T18:19:43;2.20;;;1.90;;
11319;SDS011;5715;48.234;14.320;2022-09-27T18:22:30;6.23;;;2.90;;
11319;SDS011;5715;48.234;14.320;2022-09-27T18:25:18;3.00;;;2.23;;
11319;SDS011;5715;48.234;14.320;2022-09-27T18:28:06;1.47;;;1.37;;
11319;SDS011;5715;48.234;14.320;2022-09-27T18:30:59;3.53;;;1.57;;
11319;SDS011;5715;48.234;14.320;2022-09-27T18:33:51;1.20;;;1.10;;
11319;SDS011;5715;48.234;14.320;2022-09-27T18:36:39;3.33;;;1.17;;
11319;SDS011;5715;48.234;14.320;2022-09-27T18:39:28;1.93;;;1.43;;
11319;SDS011;5715;48.234;14.320;2022-09-27T18:42:15;11.37;;;1.50;;
11319;SDS011;5715;48.234;14.320;2022-09-27T18:45:03;1.30;;;1.20;;
11319;SDS011;5715;48.234;14.320;2022-09-27T18:47:51;3.23;;;1.77;;
11319;SDS011;5715;48.234;14.320;2022-09-27T18:50:39;4.73;;;1.93;;
11319;SDS011;5715;48.234;14.320;2022-09-27T18:53:26;2.50;;;1.70;;
11319;SDS011;5715;48.234;14.320;2022-09-27T18:56:15;2.63;;;1.50;;
11319;SDS011;5715;48.234;14.320;2022-09-27T18:59:04;2.00;;;1.77;;
11319;SDS011;5715;48.234;14.320;2022-09-27T19:01:54;3.90;;;1.73;;
11319;SDS011;5715;48.234;14.320;2022-09-27T19:04:42;2.53;;;1.37;;
11319;SDS011;5715;48.234;14.320;2022-09-27T19:07:29;3.50;;;1.77;;
11319;SDS011;5715;48.234;14.320;2022-09-27T19:10:18;1.27;;;1.10;;
11319;SDS011;5715;48.234;14.320;2022-09-27T19:13:06;1.50;;;1.40;;
11319;SDS011;5715;48.234;14.320;2022-09-27T19:15:55;2.60;;;0.90;;
11319;SDS011;5715;48.234;14.320;2022-09-27T19:18:44;0.80;;;0.80;;
11319;SDS011;5715;48.234;14.320;2022-09-27T19:21:31;1.27;;;1.00;;
11319;SDS011;5715;48.234;14.320;2022-09-27T19:24:19;1.33;;;1.10;;
11319;SDS011;5715;48.234;14.320;2022-09-27T19:27:07;2.13;;;1.00;;
11319;SDS011;5715;48.234;14.320;2022-09-27T19:29:55;0.60;;;0.60;;
11319;SDS011;5715;48.234;14.320;2022-09-27T19:32:45;3.50;;;1.20;;
11319;SDS011;5715;48.234;14.320;2022-09-27T19:35:33;0.77;;;0.77;;
11319;SDS011;5715;48.234;14.320;2022-09-27T19:38:21;0.60;;;0.50;;
11319;SDS011;5715;48.234;14.320;2022-09-27T19:41:09;0.97;;;0.97;;
11319;SDS011;5715;48.234;14.320;2022-09-27T19:44:00;0.93;;;0.93;;
11319;SDS011;5715;48.234;14.320;2022-09-27T19:46:47;1.33;;;0.90;;
11319;SDS011;5715;48.234;14.320;2022-09-27T19:49:35;0.93;;;0.93;;
11319;SDS011;5715;48.234;14.320;2022-09-27T19:52:23;1.67;;;1.57;;
11319;SDS011;5715;48.234;14.320;2022-09-27T19:55:11;1.97;;;0.90;;
11319;SDS011;5715;48.234;14.320;2022-09-27T19:57:58;0.90;;;0.90;;
11319;SDS011;5715;48.234;14.320;2022-09-27T20:00:46;0.53;;;0.53;;
11319;SDS011;5715;48.234;14.320;2022-09-27T20:03:34;1.70;;;0.70;;
11319;SDS011;5715;48.234;14.320;2022-09-27T20:06:24;0.70;;;0.70;;
11319;SDS011;5715;48.234;14.320;2022-09-27T20:09:12;0.70;;;0.70;;
11319;SDS011;5715;48.234;14.320;2022-09-27T20:11:59;0.57;;;0.57;;
11319;SDS011;5715;48.234;14.320;2022-09-27T20:14:48;0.63;;;0.63;;
11319;SDS011;5715;48.234;14.320;2022-09-27T20:17:36;0.63;;;0.63;;
11319;SDS011;5715;48.234;14.320;2022-09-27T20:20:23;0.50;;;0.50;;
11319;SDS011;5715;48.234;14.320;2022-09-27T20:23:11;0.67;;;0.67;;
11319;SDS011;5715;48.234;14.320;2022-09-27T20:26:04;3.17;;;1.07;;
11319;SDS011;5715;48.234;14.320;2022-09-27T20:28:59;2.40;;;1.53;;